sensor_id;sensor_type;location;lat;lon;timestamp;temperature;humidity
33105;DHT22;19476;51.448;6.674;2023-06-14T00:02:12;27.20;28.20
33105;DHT22;19476;51.448;6.674;2023-06-14T00:04:38;27.10;28.40
33105;DHT22;19476;51.448;6.674;2023-06-14T00:07:05;27.10;28.40
33105;DHT22;19476;51.448;6.674;2023-06-14T00:09:34;27.00;28.40
33105;DHT22;19476;51.448;6.674;2023-06-14T00:12:01;27.00;28.40
33105;DHT22;19476;51.448;6.674;2023-06-14T00:14:27;27.00;28.40
33105;DHT22;19476;51.448;6.674;2023-06-14T00:16:53;26.90;28.30
33105;DHT22;19476;51.448;6.674;2023-06-14T00:19:24;26.90;28.30
33105;DHT22;19476;51.448;6.674;2023-06-14T00:21:50;26.80;28.50
33105;DHT22;19476;51.448;6.674;2023-06-14T00:24:17;26.80;28.50
33105;DHT22;19476;51.448;6.674;2023-06-14T00:26:43;26.80;28.50
33105;DHT22;19476;51.448;6.674;2023-06-14T00:29:08;26.70;28.50
33105;DHT22;19476;51.448;6.674;2023-06-14T00:31:34;26.70;28.50
33105;DHT22;19476;51.448;6.674;2023-06-14T00:34:00;26.70;28.50
33105;DHT22;19476;51.448;6.674;2023-06-14T00:36:26;26.70;28.70
33105;DHT22;19476;51.448;6.674;2023-06-14T00:38:52;26.60;28.60
33105;DHT22;19476;51.448;6.674;2023-06-14T00:41:18;26.60;28.70
33105;DHT22;19476;51.448;6.674;2023-06-14T00:43:44;26.50;28.70
33105;DHT22;19476;51.448;6.674;2023-06-14T00:46:09;26.50;28.90
33105;DHT22;19476;51.448;6.674;2023-06-14T00:48:36;26.50;28.90
33105;DHT22;19476;51.448;6.674;2023-06-14T00:51:03;26.40;29.10
33105;DHT22;19476;51.448;6.674;2023-06-14T00:53:30;26.70;29.30
33105;DHT22;19476;51.448;6.674;2023-06-14T00:55:59;26.30;29.10
33105;DHT22;19476;51.448;6.674;2023-06-14T00:58:25;26.30;28.80
33105;DHT22;19476;51.448;6.674;2023-06-14T01:00:52;26.20;29.00
33105;DHT22;19476;51.448;6.674;2023-06-14T01:03:17;26.20;29.20
33105;DHT22;19476;51.448;6.674;2023-06-14T01:05:47;26.20;29.30
33105;DHT22;19476;51.448;6.674;2023-06-14T01:11:22;26.10;29.30
33105;DHT22;19476;51.448;6.674;2023-06-14T01:13:51;26.10;29.60
33105;DHT22;19476;51.448;6.674;2023-06-14T01:16:18;26.00;29.30
33105;DHT22;19476;51.448;6.674;2023-06-14T01:18:45;26.00;29.40
33105;DHT22;19476;51.448;6.674;2023-06-14T01:21:26;26.00;29.50
33105;DHT22;19476;51.448;6.674;2023-06-14T01:23:53;25.90;29.70
33105;DHT22;19476;51.448;6.674;2023-06-14T01:26:21;25.90;29.30
33105;DHT22;19476;51.448;6.674;2023-06-14T01:28:48;25.90;29.40
33105;DHT22;19476;51.448;6.674;2023-06-14T01:31:18;25.90;29.40
33105;DHT22;19476;51.448;6.674;2023-06-14T01:33:45;25.90;29.50
33105;DHT22;19476;51.448;6.674;2023-06-14T01:36:12;25.90;29.50
33105;DHT22;19476;51.448;6.674;2023-06-14T01:38:39;25.80;29.40
33105;DHT22;19476;51.448;6.674;2023-06-14T01:41:06;25.80;29.40
33105;DHT22;19476;51.448;6.674;2023-06-14T01:43:33;25.80;29.30
33105;DHT22;19476;51.448;6.674;2023-06-14T01:46:00;25.80;29.50
33105;DHT22;19476;51.448;6.674;2023-06-14T01:48:26;25.80;29.40
33105;DHT22;19476;51.448;6.674;2023-06-14T01:50:52;25.70;29.40
33105;DHT22;19476;51.448;6.674;2023-06-14T01:53:18;25.70;29.50
33105;DHT22;19476;51.448;6.674;2023-06-14T01:55:44;25.70;29.60
33105;DHT22;19476;51.448;6.674;2023-06-14T01:58:14;25.60;29.50
33105;DHT22;19476;51.448;6.674;2023-06-14T02:00:42;25.60;29.60
33105;DHT22;19476;51.448;6.674;2023-06-14T02:03:09;25.50;29.60
33105;DHT22;19476;51.448;6.674;2023-06-14T02:05:34;25.50;29.60
33105;DHT22;19476;51.448;6.674;2023-06-14T02:08:01;25.40;29.60
33105;DHT22;19476;51.448;6.674;2023-06-14T02:10:26;25.40;29.80
33105;DHT22;19476;51.448;6.674;2023-06-14T02:12:52;25.30;29.80
33105;DHT22;19476;51.448;6.674;2023-06-14T02:15:18;25.30;29.80
33105;DHT22;19476;51.448;6.674;2023-06-14T02:17:45;25.20;29.90
33105;DHT22;19476;51.448;6.674;2023-06-14T02:20:13;25.20;29.90
33105;DHT22;19476;51.448;6.674;2023-06-14T02:22:39;25.20;29.90
33105;DHT22;19476;51.448;6.674;2023-06-14T02:25:05;25.10;29.90
33105;DHT22;19476;51.448;6.674;2023-06-14T02:27:32;25.10;29.90
33105;DHT22;19476;51.448;6.674;2023-06-14T02:29:58;25.10;29.90
33105;DHT22;19476;51.448;6.674;2023-06-14T02:32:23;25.10;30.00
33105;DHT22;19476;51.448;6.674;2023-06-14T02:34:50;25.00;29.90
33105;DHT22;19476;51.448;6.674;2023-06-14T02:37:16;25.00;30.00
33105;DHT22;19476;51.448;6.674;2023-06-14T02:39:42;25.00;30.00
33105;DHT22;19476;51.448;6.674;2023-06-14T02:42:08;25.00;30.00
33105;DHT22;19476;51.448;6.674;2023-06-14T02:44:33;24.90;30.00
33105;DHT22;19476;51.448;6.674;2023-06-14T02:47:00;24.90;30.10
33105;DHT22;19476;51.448;6.674;2023-06-14T02:49:26;24.90;30.00
33105;DHT22;19476;51.448;6.674;2023-06-14T02:51:52;24.90;30.10
33105;DHT22;19476;51.448;6.674;2023-06-14T02:54:18;24.80;30.10
33105;DHT22;19476;51.448;6.674;2023-06-14T02:56:44;24.80;30.20
33105;DHT22;19476;51.448;6.674;2023-06-14T02:59:10;24.80;30.20
33105;DHT22;19476;51.448;6.674;2023-06-14T03:01:35;24.60;30.00
33105;DHT22;19476;51.448;6.674;2023-06-14T03:04:04;24.70;30.00
33105;DHT22;19476;51.448;6.674;2023-06-14T03:06:30;24.70;30.10
33105;DHT22;19476;51.448;6.674;2023-06-14T03:09:01;24.70;30.90
33105;DHT22;19476;51.448;6.674;2023-06-14T03:11:30;24.70;30.60
33105;DHT22;19476;51.448;6.674;2023-06-14T03:13:57;24.70;30.40
33105;DHT22;19476;51.448;6.674;2023-06-14T03:16:23;24.70;30.30
33105;DHT22;19476;51.448;6.674;2023-06-14T03:18:53;24.70;30.30
33105;DHT22;19476;51.448;6.674;2023-06-14T03:21:21;24.70;30.40
33105;DHT22;19476;51.448;6.674;2023-06-14T03:23:48;24.90;30.60
33105;DHT22;19476;51.448;6.674;2023-06-14T03:26:14;24.60;30.50
33105;DHT22;19476;51.448;6.674;2023-06-14T03:28:46;24.60;30.40
33105;DHT22;19476;51.448;6.674;2023-06-14T03:31:12;24.60;31.10
33105;DHT22;19476;51.448;6.674;2023-06-14T03:33:39;24.60;30.60
33105;DHT22;19476;51.448;6.674;2023-06-14T03:36:05;24.60;30.60
33105;DHT22;19476;51.448;6.674;2023-06-14T03:38:32;24.50;30.50
33105;DHT22;19476;51.448;6.674;2023-06-14T03:40:58;24.50;30.70
33105;DHT22;19476;51.448;6.674;2023-06-14T03:43:26;24.50;30.40
33105;DHT22;19476;51.448;6.674;2023-06-14T03:45:52;24.50;30.70
33105;DHT22;19476;51.448;6.674;2023-06-14T03:48:18;24.10;30.50
33105;DHT22;19476;51.448;6.674;2023-06-14T03:50:44;24.50;30.60
33105;DHT22;19476;51.448;6.674;2023-06-14T03:53:10;24.40;30.60
33105;DHT22;19476;51.448;6.674;2023-06-14T03:55:36;24.40;30.60
33105;DHT22;19476;51.448;6.674;2023-06-14T03:58:03;24.40;30.90
33105;DHT22;19476;51.448;6.674;2023-06-14T04:00:29;24.40;30.70
33105;DHT22;19476;51.448;6.674;2023-06-14T04:02:56;24.40;30.70
33105;DHT22;19476;51.448;6.674;2023-06-14T04:05:22;24.40;30.80
33105;DHT22;19476;51.448;6.674;2023-06-14T04:07:51;24.30;30.70
33105;DHT22;19476;51.448;6.674;2023-06-14T04:10:17;24.30;31.30
33105;DHT22;19476;51.448;6.674;2023-06-14T04:12:43;24.30;30.80
33105;DHT22;19476;51.448;6.674;2023-06-14T04:15:09;24.30;30.90
33105;DHT22;19476;51.448;6.674;2023-06-14T04:17:36;24.30;30.80
33105;DHT22;19476;51.448;6.674;2023-06-14T04:20:03;24.30;31.10
33105;DHT22;19476;51.448;6.674;2023-06-14T04:22:32;24.30;31.10
33105;DHT22;19476;51.448;6.674;2023-06-14T04:24:58;24.30;31.00
33105;DHT22;19476;51.448;6.674;2023-06-14T04:27:26;24.30;30.90
33105;DHT22;19476;51.448;6.674;2023-06-14T04:29:56;24.30;31.10
33105;DHT22;19476;51.448;6.674;2023-06-14T04:32:29;24.30;31.90
33105;DHT22;19476;51.448;6.674;2023-06-14T04:34:58;24.30;31.70
33105;DHT22;19476;51.448;6.674;2023-06-14T04:37:25;24.30;31.20
33105;DHT22;19476;51.448;6.674;2023-06-14T04:39:54;24.30;31.20
33105;DHT22;19476;51.448;6.674;2023-06-14T04:42:24;24.30;31.20
33105;DHT22;19476;51.448;6.674;2023-06-14T04:44:56;24.30;31.20
33105;DHT22;19476;51.448;6.674;2023-06-14T04:47:23;24.20;31.20
33105;DHT22;19476;51.448;6.674;2023-06-14T04:49:55;24.30;31.30
33105;DHT22;19476;51.448;6.674;2023-06-14T04:52:21;24.30;31.40
33105;DHT22;19476;51.448;6.674;2023-06-14T04:54:47;24.30;31.20
33105;DHT22;19476;51.448;6.674;2023-06-14T04:57:13;24.30;31.20
33105;DHT22;19476;51.448;6.674;2023-06-14T04:59:42;24.40;31.20
33105;DHT22;19476;51.448;6.674;2023-06-14T05:02:10;24.40;31.30
33105;DHT22;19476;51.448;6.674;2023-06-14T05:04:38;24.40;31.20
33105;DHT22;19476;51.448;6.674;2023-06-14T05:07:09;24.40;31.20
33105;DHT22;19476;51.448;6.674;2023-06-14T05:09:36;24.50;31.20
33105;DHT22;19476;51.448;6.674;2023-06-14T05:12:03;24.50;31.10
33105;DHT22;19476;51.448;6.674;2023-06-14T05:14:29;24.50;31.20
33105;DHT22;19476;51.448;6.674;2023-06-14T05:16:54;24.50;31.10
33105;DHT22;19476;51.448;6.674;2023-06-14T05:19:20;24.50;31.30
33105;DHT22;19476;51.448;6.674;2023-06-14T05:21:47;24.50;31.50
33105;DHT22;19476;51.448;6.674;2023-06-14T05:24:14;24.50;31.40
33105;DHT22;19476;51.448;6.674;2023-06-14T05:26:39;24.60;31.50
33105;DHT22;19476;51.448;6.674;2023-06-14T05:29:06;24.60;31.40
33105;DHT22;19476;51.448;6.674;2023-06-14T05:31:31;24.60;31.30
33105;DHT22;19476;51.448;6.674;2023-06-14T05:33:58;24.60;31.40
33105;DHT22;19476;51.448;6.674;2023-06-14T05:36:24;24.60;31.30
33105;DHT22;19476;51.448;6.674;2023-06-14T05:38:50;24.60;31.30
33105;DHT22;19476;51.448;6.674;2023-06-14T05:41:16;24.60;31.30
33105;DHT22;19476;51.448;6.674;2023-06-14T05:43:42;24.60;31.30
33105;DHT22;19476;51.448;6.674;2023-06-14T05:46:08;24.60;31.30
33105;DHT22;19476;51.448;6.674;2023-06-14T05:48:34;24.60;31.30
33105;DHT22;19476;51.448;6.674;2023-06-14T05:51:00;24.60;31.40
33105;DHT22;19476;51.448;6.674;2023-06-14T05:53:26;24.60;31.40
33105;DHT22;19476;51.448;6.674;2023-06-14T05:55:51;24.60;31.50
33105;DHT22;19476;51.448;6.674;2023-06-14T05:58:19;24.60;31.40
33105;DHT22;19476;51.448;6.674;2023-06-14T06:00:45;24.60;31.40
33105;DHT22;19476;51.448;6.674;2023-06-14T06:03:11;24.60;31.50
33105;DHT22;19476;51.448;6.674;2023-06-14T06:05:39;24.70;31.70
33105;DHT22;19476;51.448;6.674;2023-06-14T06:08:05;24.70;31.70
33105;DHT22;19476;51.448;6.674;2023-06-14T06:10:31;24.70;31.60
33105;DHT22;19476;51.448;6.674;2023-06-14T06:12:57;24.70;31.70
33105;DHT22;19476;51.448;6.674;2023-06-14T06:15:23;24.70;31.60
33105;DHT22;19476;51.448;6.674;2023-06-14T06:17:48;24.80;31.80
33105;DHT22;19476;51.448;6.674;2023-06-14T06:20:15;24.80;31.60
33105;DHT22;19476;51.448;6.674;2023-06-14T06:22:41;24.90;31.50
33105;DHT22;19476;51.448;6.674;2023-06-14T06:25:07;25.00;31.50
33105;DHT22;19476;51.448;6.674;2023-06-14T06:27:34;25.00;31.50
33105;DHT22;19476;51.448;6.674;2023-06-14T06:30:01;25.10;31.40
33105;DHT22;19476;51.448;6.674;2023-06-14T06:32:27;25.10;31.20
33105;DHT22;19476;51.448;6.674;2023-06-14T06:34:53;25.20;31.10
33105;DHT22;19476;51.448;6.674;2023-06-14T06:37:19;25.20;31.10
33105;DHT22;19476;51.448;6.674;2023-06-14T06:39:45;25.30;31.10
33105;DHT22;19476;51.448;6.674;2023-06-14T06:42:12;25.30;31.20
33105;DHT22;19476;51.448;6.674;2023-06-14T06:44:37;25.30;31.10
33105;DHT22;19476;51.448;6.674;2023-06-14T06:47:04;25.30;31.10
33105;DHT22;19476;51.448;6.674;2023-06-14T06:49:30;25.40;31.00
33105;DHT22;19476;51.448;6.674;2023-06-14T06:52:14;25.40;30.90
33105;DHT22;19476;51.448;6.674;2023-06-14T06:54:40;25.40;30.90
33105;DHT22;19476;51.448;6.674;2023-06-14T06:57:06;25.40;30.90
33105;DHT22;19476;51.448;6.674;2023-06-14T06:59:33;25.50;30.70
33105;DHT22;19476;51.448;6.674;2023-06-14T07:05:21;25.60;30.40
33105;DHT22;19476;51.448;6.674;2023-06-14T07:07:49;25.60;30.30
33105;DHT22;19476;51.448;6.674;2023-06-14T07:10:15;25.70;30.10
33105;DHT22;19476;51.448;6.674;2023-06-14T07:12:43;25.70;30.00
33105;DHT22;19476;51.448;6.674;2023-06-14T07:15:09;25.70;29.90
33105;DHT22;19476;51.448;6.674;2023-06-14T07:17:35;25.70;30.00
33105;DHT22;19476;51.448;6.674;2023-06-14T07:20:05;25.80;30.00
33105;DHT22;19476;51.448;6.674;2023-06-14T07:22:34;25.80;30.00
33105;DHT22;19476;51.448;6.674;2023-06-14T07:24:59;25.90;30.00
33105;DHT22;19476;51.448;6.674;2023-06-14T07:27:25;26.00;30.00
33105;DHT22;19476;51.448;6.674;2023-06-14T07:29:51;26.00;30.00
33105;DHT22;19476;51.448;6.674;2023-06-14T07:32:17;26.00;29.80
33105;DHT22;19476;51.448;6.674;2023-06-14T07:34:43;26.10;29.70
33105;DHT22;19476;51.448;6.674;2023-06-14T07:37:08;26.10;29.60
33105;DHT22;19476;51.448;6.674;2023-06-14T07:39:34;26.10;29.60
33105;DHT22;19476;51.448;6.674;2023-06-14T07:42:00;26.20;29.50
33105;DHT22;19476;51.448;6.674;2023-06-14T07:44:29;26.20;29.80
33105;DHT22;19476;51.448;6.674;2023-06-14T07:46:56;26.30;29.80
33105;DHT22;19476;51.448;6.674;2023-06-14T07:49:23;26.30;29.50
33105;DHT22;19476;51.448;6.674;2023-06-14T07:51:50;26.30;29.30
33105;DHT22;19476;51.448;6.674;2023-06-14T07:54:16;26.40;29.30
33105;DHT22;19476;51.448;6.674;2023-06-14T07:56:43;26.40;29.30
33105;DHT22;19476;51.448;6.674;2023-06-14T07:59:08;26.50;29.30
33105;DHT22;19476;51.448;6.674;2023-06-14T08:01:34;26.60;29.40
33105;DHT22;19476;51.448;6.674;2023-06-14T08:04:01;26.60;29.20
33105;DHT22;19476;51.448;6.674;2023-06-14T08:06:27;26.60;29.10
33105;DHT22;19476;51.448;6.674;2023-06-14T08:08:53;26.70;29.10
33105;DHT22;19476;51.448;6.674;2023-06-14T08:11:19;26.70;29.10
33105;DHT22;19476;51.448;6.674;2023-06-14T08:13:45;26.80;29.10
33105;DHT22;19476;51.448;6.674;2023-06-14T08:16:11;26.80;28.90
33105;DHT22;19476;51.448;6.674;2023-06-14T08:18:42;26.80;28.90
33105;DHT22;19476;51.448;6.674;2023-06-14T08:21:08;26.90;28.90
33105;DHT22;19476;51.448;6.674;2023-06-14T08:23:34;26.70;29.00
33105;DHT22;19476;51.448;6.674;2023-06-14T08:26:01;27.00;29.10
33105;DHT22;19476;51.448;6.674;2023-06-14T08:28:29;27.00;29.10
33105;DHT22;19476;51.448;6.674;2023-06-14T08:30:55;27.10;29.00
33105;DHT22;19476;51.448;6.674;2023-06-14T08:33:21;27.10;28.90
33105;DHT22;19476;51.448;6.674;2023-06-14T08:35:47;27.20;29.00
33105;DHT22;19476;51.448;6.674;2023-06-14T08:38:13;27.20;29.10
33105;DHT22;19476;51.448;6.674;2023-06-14T08:40:40;27.20;29.20
33105;DHT22;19476;51.448;6.674;2023-06-14T08:43:07;27.30;29.20
33105;DHT22;19476;51.448;6.674;2023-06-14T08:45:33;27.30;29.10
33105;DHT22;19476;51.448;6.674;2023-06-14T08:47:59;27.40;29.00
33105;DHT22;19476;51.448;6.674;2023-06-14T08:50:27;27.40;28.90
33105;DHT22;19476;51.448;6.674;2023-06-14T08:52:57;27.40;28.70
33105;DHT22;19476;51.448;6.674;2023-06-14T08:55:26;27.50;28.70
33105;DHT22;19476;51.448;6.674;2023-06-14T08:57:57;27.50;28.80
33105;DHT22;19476;51.448;6.674;2023-06-14T09:00:27;27.50;28.90
33105;DHT22;19476;51.448;6.674;2023-06-14T09:02:53;27.50;28.60
33105;DHT22;19476;51.448;6.674;2023-06-14T09:05:26;27.60;28.80
33105;DHT22;19476;51.448;6.674;2023-06-14T09:07:52;27.60;29.00
33105;DHT22;19476;51.448;6.674;2023-06-14T09:10:21;27.70;29.10
33105;DHT22;19476;51.448;6.674;2023-06-14T09:12:46;27.70;29.00
33105;DHT22;19476;51.448;6.674;2023-06-14T09:15:13;27.70;29.10
33105;DHT22;19476;51.448;6.674;2023-06-14T09:17:40;27.80;29.10
33105;DHT22;19476;51.448;6.674;2023-06-14T09:20:07;27.80;29.00
33105;DHT22;19476;51.448;6.674;2023-06-14T09:22:37;27.80;28.80
33105;DHT22;19476;51.448;6.674;2023-06-14T09:25:04;27.90;28.80
33105;DHT22;19476;51.448;6.674;2023-06-14T09:27:32;27.80;28.80
33105;DHT22;19476;51.448;6.674;2023-06-14T09:29:58;27.90;28.80
33105;DHT22;19476;51.448;6.674;2023-06-14T09:32:25;27.90;28.80
33105;DHT22;19476;51.448;6.674;2023-06-14T09:34:51;27.90;28.70
33105;DHT22;19476;51.448;6.674;2023-06-14T09:37:30;28.00;28.80
33105;DHT22;19476;51.448;6.674;2023-06-14T09:39:57;28.00;28.90
33105;DHT22;19476;51.448;6.674;2023-06-14T09:42:24;28.00;28.90
33105;DHT22;19476;51.448;6.674;2023-06-14T09:44:55;28.10;28.90
33105;DHT22;19476;51.448;6.674;2023-06-14T09:47:22;28.10;28.50
33105;DHT22;19476;51.448;6.674;2023-06-14T09:49:49;28.20;28.40
33105;DHT22;19476;51.448;6.674;2023-06-14T09:52:17;28.20;28.10
33105;DHT22;19476;51.448;6.674;2023-06-14T09:54:45;28.30;28.10
33105;DHT22;19476;51.448;6.674;2023-06-14T09:57:13;28.30;28.00
33105;DHT22;19476;51.448;6.674;2023-06-14T09:59:42;28.40;28.10
33105;DHT22;19476;51.448;6.674;2023-06-14T10:02:31;28.50;27.80
33105;DHT22;19476;51.448;6.674;2023-06-14T10:05:03;28.50;27.40
33105;DHT22;19476;51.448;6.674;2023-06-14T10:07:40;28.60;27.50
33105;DHT22;19476;51.448;6.674;2023-06-14T10:10:07;28.60;27.30
33105;DHT22;19476;51.448;6.674;2023-06-14T10:12:33;28.60;27.40
33105;DHT22;19476;51.448;6.674;2023-06-14T10:15:00;28.60;27.20
33105;DHT22;19476;51.448;6.674;2023-06-14T10:23:10;28.70;26.80
33105;DHT22;19476;51.448;6.674;2023-06-14T10:25:38;28.80;26.70
33105;DHT22;19476;51.448;6.674;2023-06-14T10:31:02;28.90;26.70
33105;DHT22;19476;51.448;6.674;2023-06-14T10:33:36;28.70;26.40
33105;DHT22;19476;51.448;6.674;2023-06-14T10:36:32;28.90;26.70
33105;DHT22;19476;51.448;6.674;2023-06-14T10:39:19;29.00;26.70
33105;DHT22;19476;51.448;6.674;2023-06-14T10:41:53;29.10;26.80
33105;DHT22;19476;51.448;6.674;2023-06-14T10:46:48;29.20;26.80
33105;DHT22;19476;51.448;6.674;2023-06-14T10:49:18;29.30;26.80
33105;DHT22;19476;51.448;6.674;2023-06-14T10:51:50;29.30;26.60
33105;DHT22;19476;51.448;6.674;2023-06-14T10:54:17;29.40;26.50
33105;DHT22;19476;51.448;6.674;2023-06-14T10:56:46;29.40;26.60
33105;DHT22;19476;51.448;6.674;2023-06-14T10:59:14;29.50;26.50
33105;DHT22;19476;51.448;6.674;2023-06-14T11:04:34;29.50;26.50
33105;DHT22;19476;51.448;6.674;2023-06-14T11:12:48;29.70;26.60
33105;DHT22;19476;51.448;6.674;2023-06-14T11:15:14;29.80;26.50
33105;DHT22;19476;51.448;6.674;2023-06-14T11:17:50;29.90;26.30
33105;DHT22;19476;51.448;6.674;2023-06-14T11:20:18;30.00;26.20
33105;DHT22;19476;51.448;6.674;2023-06-14T11:22:45;30.00;26.20
33105;DHT22;19476;51.448;6.674;2023-06-14T11:25:14;30.10;25.90
33105;DHT22;19476;51.448;6.674;2023-06-14T11:27:43;30.20;25.60
33105;DHT22;19476;51.448;6.674;2023-06-14T11:30:10;30.20;25.60
33105;DHT22;19476;51.448;6.674;2023-06-14T11:32:37;30.30;25.50
33105;DHT22;19476;51.448;6.674;2023-06-14T11:35:04;30.30;25.30
33105;DHT22;19476;51.448;6.674;2023-06-14T11:37:32;30.30;25.30
33105;DHT22;19476;51.448;6.674;2023-06-14T11:39:59;30.30;25.40
33105;DHT22;19476;51.448;6.674;2023-06-14T11:42:29;30.30;25.50
33105;DHT22;19476;51.448;6.674;2023-06-14T11:44:55;30.40;25.70
33105;DHT22;19476;51.448;6.674;2023-06-14T11:47:24;30.40;25.80
33105;DHT22;19476;51.448;6.674;2023-06-14T11:49:58;30.40;25.90
33105;DHT22;19476;51.448;6.674;2023-06-14T11:52:24;30.60;26.30
33105;DHT22;19476;51.448;6.674;2023-06-14T11:54:50;30.60;25.80
33105;DHT22;19476;51.448;6.674;2023-06-14T11:57:18;30.60;25.80
33105;DHT22;19476;51.448;6.674;2023-06-14T11:59:45;30.70;25.70
33105;DHT22;19476;51.448;6.674;2023-06-14T12:02:15;30.80;25.60
33105;DHT22;19476;51.448;6.674;2023-06-14T12:04:47;30.80;25.50
33105;DHT22;19476;51.448;6.674;2023-06-14T12:07:17;30.90;25.20
33105;DHT22;19476;51.448;6.674;2023-06-14T12:12:21;31.00;25.20
33105;DHT22;19476;51.448;6.674;2023-06-14T12:14:48;31.10;25.60
33105;DHT22;19476;51.448;6.674;2023-06-14T12:17:16;31.20;25.70
33105;DHT22;19476;51.448;6.674;2023-06-14T12:19:44;31.30;25.70
33105;DHT22;19476;51.448;6.674;2023-06-14T12:22:11;31.40;25.60
33105;DHT22;19476;51.448;6.674;2023-06-14T12:24:37;31.50;25.60
33105;DHT22;19476;51.448;6.674;2023-06-14T12:27:04;31.60;25.60
33105;DHT22;19476;51.448;6.674;2023-06-14T12:29:31;31.70;25.50
33105;DHT22;19476;51.448;6.674;2023-06-14T12:31:57;31.80;25.60
33105;DHT22;19476;51.448;6.674;2023-06-14T12:34:24;31.80;25.30
33105;DHT22;19476;51.448;6.674;2023-06-14T12:36:50;31.90;25.30
33105;DHT22;19476;51.448;6.674;2023-06-14T12:39:16;32.10;25.30
33105;DHT22;19476;51.448;6.674;2023-06-14T12:41:42;32.20;25.30
33105;DHT22;19476;51.448;6.674;2023-06-14T12:44:08;32.30;25.20
33105;DHT22;19476;51.448;6.674;2023-06-14T12:46:34;32.40;25.30
33105;DHT22;19476;51.448;6.674;2023-06-14T12:49:00;32.50;25.40
33105;DHT22;19476;51.448;6.674;2023-06-14T12:51:26;32.50;25.30
33105;DHT22;19476;51.448;6.674;2023-06-14T12:53:52;32.60;25.30
33105;DHT22;19476;51.448;6.674;2023-06-14T12:56:18;32.70;25.30
33105;DHT22;19476;51.448;6.674;2023-06-14T12:58:44;32.80;25.40
33105;DHT22;19476;51.448;6.674;2023-06-14T13:01:10;32.90;25.20
33105;DHT22;19476;51.448;6.674;2023-06-14T13:03:35;32.90;25.10
33105;DHT22;19476;51.448;6.674;2023-06-14T13:06:01;33.00;25.10
33105;DHT22;19476;51.448;6.674;2023-06-14T13:08:28;33.10;25.10
33105;DHT22;19476;51.448;6.674;2023-06-14T13:10:54;33.20;25.10
33105;DHT22;19476;51.448;6.674;2023-06-14T13:13:20;33.30;25.00
33105;DHT22;19476;51.448;6.674;2023-06-14T13:15:46;33.30;25.10
33105;DHT22;19476;51.448;6.674;2023-06-14T13:18:12;33.40;25.00
33105;DHT22;19476;51.448;6.674;2023-06-14T13:20:41;33.50;25.00
33105;DHT22;19476;51.448;6.674;2023-06-14T13:23:08;33.60;24.80
33105;DHT22;19476;51.448;6.674;2023-06-14T13:25:36;33.70;24.80
33105;DHT22;19476;51.448;6.674;2023-06-14T13:28:03;33.80;24.90
33105;DHT22;19476;51.448;6.674;2023-06-14T13:30:29;33.80;25.00
33105;DHT22;19476;51.448;6.674;2023-06-14T13:32:56;33.90;24.90
33105;DHT22;19476;51.448;6.674;2023-06-14T13:35:23;33.90;24.60
33105;DHT22;19476;51.448;6.674;2023-06-14T13:37:48;33.90;24.50
33105;DHT22;19476;51.448;6.674;2023-06-14T13:40:14;34.00;24.50
33105;DHT22;19476;51.448;6.674;2023-06-14T13:42:40;34.00;24.60
33105;DHT22;19476;51.448;6.674;2023-06-14T13:45:07;34.00;24.50
33105;DHT22;19476;51.448;6.674;2023-06-14T13:47:34;34.10;24.60
33105;DHT22;19476;51.448;6.674;2023-06-14T13:49:59;34.10;24.60
33105;DHT22;19476;51.448;6.674;2023-06-14T13:52:25;34.20;24.60
33105;DHT22;19476;51.448;6.674;2023-06-14T13:54:51;34.30;24.70
33105;DHT22;19476;51.448;6.674;2023-06-14T13:57:18;34.30;24.50
33105;DHT22;19476;51.448;6.674;2023-06-14T13:59:44;34.40;24.50
33105;DHT22;19476;51.448;6.674;2023-06-14T14:02:11;34.50;24.40
33105;DHT22;19476;51.448;6.674;2023-06-14T14:04:38;34.50;24.30
33105;DHT22;19476;51.448;6.674;2023-06-14T14:07:05;34.50;24.20
33105;DHT22;19476;51.448;6.674;2023-06-14T14:09:32;34.60;24.30
33105;DHT22;19476;51.448;6.674;2023-06-14T14:11:59;34.60;24.30
33105;DHT22;19476;51.448;6.674;2023-06-14T14:14:24;34.60;24.20
33105;DHT22;19476;51.448;6.674;2023-06-14T14:16:50;34.70;24.40
33105;DHT22;19476;51.448;6.674;2023-06-14T14:19:21;34.80;24.30
33105;DHT22;19476;51.448;6.674;2023-06-14T14:21:48;34.90;24.40
33105;DHT22;19476;51.448;6.674;2023-06-14T14:24:13;35.10;24.10
33105;DHT22;19476;51.448;6.674;2023-06-14T14:26:40;35.10;23.80
33105;DHT22;19476;51.448;6.674;2023-06-14T14:29:06;35.10;23.90
33105;DHT22;19476;51.448;6.674;2023-06-14T14:31:32;35.10;23.70
33105;DHT22;19476;51.448;6.674;2023-06-14T14:33:57;35.10;23.70
33105;DHT22;19476;51.448;6.674;2023-06-14T14:36:23;35.20;23.50
33105;DHT22;19476;51.448;6.674;2023-06-14T14:38:49;35.10;23.60
33105;DHT22;19476;51.448;6.674;2023-06-14T14:41:17;35.10;23.70
33105;DHT22;19476;51.448;6.674;2023-06-14T14:43:43;35.10;23.80
33105;DHT22;19476;51.448;6.674;2023-06-14T14:46:09;35.20;23.70
33105;DHT22;19476;51.448;6.674;2023-06-14T14:48:35;35.20;23.60
33105;DHT22;19476;51.448;6.674;2023-06-14T14:51:01;35.30;23.80
33105;DHT22;19476;51.448;6.674;2023-06-14T14:53:28;35.30;23.60
33105;DHT22;19476;51.448;6.674;2023-06-14T14:55:54;35.40;23.60
33105;DHT22;19476;51.448;6.674;2023-06-14T14:58:20;35.40;23.60
33105;DHT22;19476;51.448;6.674;2023-06-14T15:00:47;35.50;23.60
33105;DHT22;19476;51.448;6.674;2023-06-14T15:03:13;35.50;23.60
33105;DHT22;19476;51.448;6.674;2023-06-14T15:05:39;35.60;23.50
33105;DHT22;19476;51.448;6.674;2023-06-14T15:08:06;35.70;23.60
33105;DHT22;19476;51.448;6.674;2023-06-14T15:10:39;35.80;23.50
33105;DHT22;19476;51.448;6.674;2023-06-14T15:13:07;35.90;23.60
33105;DHT22;19476;51.448;6.674;2023-06-14T15:15:36;35.90;23.50
33105;DHT22;19476;51.448;6.674;2023-06-14T15:18:02;36.00;23.70
33105;DHT22;19476;51.448;6.674;2023-06-14T15:20:28;36.10;23.40
33105;DHT22;19476;51.448;6.674;2023-06-14T15:22:54;36.20;23.30
33105;DHT22;19476;51.448;6.674;2023-06-14T15:25:29;36.30;23.20
33105;DHT22;19476;51.448;6.674;2023-06-14T15:27:57;36.30;23.20
33105;DHT22;19476;51.448;6.674;2023-06-14T15:30:23;36.30;23.10
33105;DHT22;19476;51.448;6.674;2023-06-14T15:33:26;36.30;23.00
33105;DHT22;19476;51.448;6.674;2023-06-14T15:35:52;36.30;22.90
33105;DHT22;19476;51.448;6.674;2023-06-14T15:45:02;36.40;23.00
33105;DHT22;19476;51.448;6.674;2023-06-14T15:50:57;36.50;23.00
33105;DHT22;19476;51.448;6.674;2023-06-14T15:53:47;36.50;23.10
33105;DHT22;19476;51.448;6.674;2023-06-14T15:56:13;36.50;22.70
33105;DHT22;19476;51.448;6.674;2023-06-14T15:58:39;36.50;22.70
33105;DHT22;19476;51.448;6.674;2023-06-14T16:01:04;36.50;22.80
33105;DHT22;19476;51.448;6.674;2023-06-14T16:03:30;36.50;22.80
33105;DHT22;19476;51.448;6.674;2023-06-14T16:05:56;36.50;22.80
33105;DHT22;19476;51.448;6.674;2023-06-14T16:08:21;36.50;22.70
33105;DHT22;19476;51.448;6.674;2023-06-14T16:10:47;36.50;22.80